Time;durP1;ratioP1;P1;durP2;ratioP2;P2;SDS_P1;SDS_P2;PMS_P1;PMS_P2;Temp;Humidity;BMP_temperature;BMP_pressure;BME280_temperature;BME280_humidity;BME280_pressure;Samples;Min_cycle;Max_cycle;Signal;HPM_P1;HPM_P2
2022/11/17 00:01:40;;;;;;;35.88;26.35;;;8.10;99.90;;;;;;5015247;28;20045;-73
2022/11/17 00:04:05;;;;;;;38.85;24.98;;;8.10;99.90;;;;;;5018551;28;20421;-73
2022/11/17 00:06:31;;;;;;;33.45;25.42;;;8.10;99.90;;;;;;5038775;28;20426;-73
2022/11/17 00:08:56;;;;;;;29.35;22.63;;;8.10;99.90;;;;;;5038542;28;20050;-73
2022/11/17 00:11:22;;;;;;;33.42;24.80;;;8.10;99.90;;;;;;5038820;28;20053;-74
2022/11/17 00:16:32;;;;;;;30.20;24.45;;;8.10;99.90;;;;;;5019139;28;20335;-72
2022/11/17 00:21:42;;;;;;;28.58;23.45;;;8.10;99.90;;;;;;5038531;28;20053;-73
2022/11/17 00:24:07;;;;;;;29.70;22.48;;;8.10;99.90;;;;;;5021616;28;20041;-73
2022/11/17 00:26:34;;;;;;;27.52;21.88;;;8.10;99.90;;;;;;5038375;28;20061;-72
2022/11/17 00:29:03;;;;;;;29.13;22.85;;;8.10;99.90;;;;;;5034150;28;20046;-72
2022/11/17 00:34:20;;;;;;;26.65;21.73;;;8.10;99.90;;;;;;5018598;28;20069;-73
2022/11/17 00:36:47;;;;;;;28.60;22.52;;;8.10;99.90;;;;;;5018288;28;20402;-73
2022/11/17 00:39:15;;;;;;;24.23;21.33;;;8.10;99.90;;;;;;5018244;28;20067;-72
2022/11/17 00:41:41;;;;;;;24.50;21.73;;;8.10;99.90;;;;;;5018281;28;20454;-74
2022/11/17 00:44:07;;;;;;;25.42;21.55;;;8.10;99.90;;;;;;5018505;28;20047;-72
2022/11/17 00:46:33;;;;;;;24.35;20.10;;;8.20;99.90;;;;;;5018449;28;20117;-72
2022/11/17 00:48:59;;;;;;;26.92;20.52;;;8.10;99.90;;;;;;5017867;28;20096;-72
2022/11/17 00:51:25;;;;;;;23.35;19.90;;;8.10;99.90;;;;;;5018490;28;20422;-73
2022/11/17 00:53:51;;;;;;;22.52;19.58;;;8.10;99.90;;;;;;5017503;28;20046;-72
2022/11/17 00:56:17;;;;;;;20.65;18.45;;;8.10;99.90;;;;;;5017859;28;20049;-73
2022/11/17 00:58:43;;;;;;;23.58;19.45;;;8.20;99.90;;;;;;5018217;28;20472;-73
2022/11/17 01:01:09;;;;;;;22.52;19.20;;;8.10;99.90;;;;;;5017615;28;20050;-73
2022/11/17 01:03:35;;;;;;;24.58;19.75;;;8.10;99.90;;;;;;5017571;28;20134;-72
2022/11/17 01:06:09;;;;;;;21.80;19.33;;;8.10;99.90;;;;;;5016900;28;20117;-74
2022/11/17 01:08:35;;;;;;;21.40;17.58;;;8.10;99.90;;;;;;5017823;28;20426;-72
2022/11/17 01:11:19;;;;;;;22.83;19.33;;;8.10;99.90;;;;;;5016514;28;20125;-72
2022/11/17 01:13:46;;;;;;;;;;;8.10;99.90;;;;;;5016599;28;20061;-73
2022/11/17 01:16:16;;;;;;;23.80;19.80;;;8.10;99.90;;;;;;5018222;28;19944;-73
2022/11/17 01:18:42;;;;;;;22.35;18.80;;;8.30;99.90;;;;;;5037644;28;20350;-72
2022/11/17 01:21:14;;;;;;;22.13;18.88;;;8.10;99.90;;;;;;5037247;28;20064;-72
2022/11/17 01:23:41;;;;;;;20.83;18.60;;;8.10;99.90;;;;;;5006398;28;20056;-73
2022/11/17 01:26:09;;;;;;;22.38;18.83;;;8.20;99.90;;;;;;5019610;28;20040;-73
2022/11/17 01:28:40;;;;;;;22.05;18.60;;;8.10;99.90;;;;;;5037729;28;20159;-73
2022/11/17 01:31:12;;;;;;;26.05;20.00;;;8.10;99.90;;;;;;5019856;28;20045;-73
2022/11/17 01:33:37;;;;;;;22.17;18.73;;;8.10;99.90;;;;;;5019477;28;20102;-73
2022/11/17 01:36:10;;;;;;;24.65;19.63;;;8.10;99.90;;;;;;5037331;28;20357;-73
2022/11/17 01:38:36;;;;;;;22.02;18.38;;;8.10;99.90;;;;;;5019302;28;20041;-72
2022/11/17 01:41:06;;;;;;;23.75;18.92;;;8.10;99.90;;;;;;5036862;28;20131;-73
2022/11/17 01:43:36;;;;;;;23.38;20.65;;;8.10;99.90;;;;;;5036939;28;20052;-73
2022/11/17 01:46:02;;;;;;;23.23;19.20;;;8.10;99.90;;;;;;5036532;28;20037;-72
2022/11/17 01:48:28;;;;;;;23.13;19.27;;;8.10;99.90;;;;;;5036991;28;20042;-73
2022/11/17 01:50:53;;;;;;;24.13;19.73;;;8.00;99.90;;;;;;5037046;28;20042;-73
2022/11/17 01:53:21;;;;;;;23.80;20.35;;;8.00;99.90;;;;;;5036939;28;20056;-72
2022/11/17 01:55:55;;;;;;;23.08;19.52;;;8.30;99.90;;;;;;5037036;28;20053;-72
2022/11/17 01:58:33;;;;;;;22.85;19.50;;;8.10;99.90;;;;;;5036954;28;20083;-73
2022/11/17 02:00:59;;;;;;;22.92;19.17;;;8.00;99.90;;;;;;5019495;28;20535;-73
2022/11/17 02:03:27;;;;;;;23.65;19.77;;;8.00;99.90;;;;;;5036864;28;20057;-74
2022/11/17 02:06:03;;;;;;;21.50;19.17;;;8.10;99.90;;;;;;5036675;28;20468;-73
2022/11/17 02:08:31;;;;;;;22.38;19.27;;;8.00;99.90;;;;;;5036243;28;20054;-73
2022/11/17 02:11:00;;;;;;;21.77;19.10;;;8.00;99.90;;;;;;5036507;28;20050;-72
2022/11/17 02:13:26;;;;;;;23.05;20.38;;;8.00;99.90;;;;;;5034038;28;20445;-73
2022/11/17 02:15:52;;;;;;;20.27;17.50;;;8.00;99.90;;;;;;4999508;28;20056;-72
2022/11/17 02:18:18;;;;;;;21.63;19.15;;;8.00;99.90;;;;;;5016609;28;20050;-72
2022/11/17 02:21:08;;;;;;;21.70;18.63;;;8.00;99.90;;;;;;5016334;28;20080;-73
2022/11/17 02:24:18;;;;;;;22.38;19.35;;;8.00;99.90;;;;;;4999455;28;20137;-73
2022/11/17 02:27:21;;;;;;;21.60;19.20;;;8.00;99.90;;;;;;4977468;28;20050;-73
2022/11/17 02:30:00;;;;;;;20.67;18.33;;;8.00;99.90;;;;;;5002012;28;20374;-73
2022/11/17 02:32:51;;;;;;;23.05;19.25;;;8.00;99.90;;;;;;5036207;28;20124;-73
2022/11/17 02:35:34;;;;;;;23.48;20.98;;;8.00;99.90;;;;;;5036249;28;20114;-73
2022/11/17 02:38:24;;;;;;;25.20;22.50;;;8.00;99.90;;;;;;5019062;28;20354;-73
2022/11/17 02:41:11;;;;;;;25.77;23.13;;;7.90;99.90;;;;;;5035843;28;20049;-73
2022/11/17 02:44:05;;;;;;;29.10;23.90;;;7.80;99.90;;;;;;5034880;28;20041;-72
2022/11/17 02:46:51;;;;;;;;;;;7.80;99.90;;;;;;5018826;28;20053;-73
2022/11/17 02:49:26;;;;;;;29.45;26.17;;;7.80;99.90;;;;;;5035250;28;20054;-72
2022/11/17 02:51:56;;;;;;;28.17;25.02;;;7.70;99.90;;;;;;5035896;28;20056;-73
2022/11/17 02:54:27;;;;;;;30.40;23.85;;;7.70;99.90;;;;;;5035496;28;20128;-73
2022/11/17 02:56:53;;;;;;;28.77;23.67;;;7.70;99.90;;;;;;5035933;28;20122;-73
2022/11/17 02:59:24;;;;;;;29.45;25.48;;;7.70;99.90;;;;;;5019663;28;20121;-73
2022/11/17 03:02:09;;;;;;;34.40;27.65;;;7.70;99.90;;;;;;5035656;28;20045;-73
2022/11/17 03:04:52;;;;;;;32.00;27.67;;;7.70;99.90;;;;;;5035384;28;20049;-73
2022/11/17 03:07:31;;;;;;;30.27;27.05;;;7.60;99.90;;;;;;5018611;28;20057;-72
2022/11/17 03:10:15;;;;;;;31.55;27.25;;;7.60;99.90;;;;;;5017444;28;20072;-73
2022/11/17 03:12:46;;;;;;;30.70;26.67;;;7.60;99.90;;;;;;5015658;28;20136;-73
2022/11/17 03:15:24;;;;;;;35.95;30.55;;;7.60;99.90;;;;;;5015296;28;20053;-72
2022/11/17 03:18:08;;;;;;;37.05;32.60;;;7.50;99.90;;;;;;5015544;28;20041;-73
2022/11/17 03:20:42;;;;;;;37.22;30.50;;;7.50;99.90;;;;;;5015737;28;20037;-73
2022/11/17 03:23:12;;;;;;;35.20;31.40;;;7.50;99.90;;;;;;5015287;28;20072;-73
2022/11/17 03:25:45;;;;;;;33.22;29.60;;;7.50;99.90;;;;;;4997385;28;20049;-73
2022/11/17 03:28:11;;;;;;;42.17;34.45;;;7.40;99.90;;;;;;5015370;28;20034;-73
2022/11/17 03:30:40;;;;;;;38.05;31.05;;;7.40;99.90;;;;;;5015367;28;20073;-74
2022/11/17 03:33:20;;;;;;;43.25;35.25;;;7.60;99.90;;;;;;5015591;28;20034;-73
2022/11/17 03:36:02;;;;;;;38.00;31.73;;;7.40;99.90;;;;;;5015055;28;20046;-72
2022/11/17 03:38:32;;;;;;;38.63;31.95;;;7.40;99.90;;;;;;5034958;28;20064;-73
2022/11/17 03:41:02;;;;;;;43.72;32.42;;;7.40;99.90;;;;;;5025228;28;20049;-73
2022/11/17 03:43:31;;;;;;;39.38;33.08;;;7.30;99.90;;;;;;5015374;28;20346;-72
2022/11/17 03:46:04;;;;;;;44.67;33.25;;;7.30;99.90;;;;;;5015221;28;20061;-73
2022/11/17 03:49:09;;;;;;;40.15;29.48;;;7.30;99.90;;;;;;5014962;28;20053;-73
2022/11/17 03:51:37;;;;;;;36.97;29.58;;;7.30;99.90;;;;;;4997662;28;20461;-72
2022/11/17 03:54:03;;;;;;;37.22;31.20;;;7.20;99.90;;;;;;5014755;28;20042;-72
2022/11/17 03:56:40;;;;;;;44.15;34.05;;;7.20;99.90;;;;;;5014986;28;20030;-72
2022/11/17 03:59:20;;;;;;;45.53;34.90;;;7.20;99.90;;;;;;4981605;28;20353;-72
2022/11/17 04:01:46;;;;;;;55.70;39.38;;;7.10;99.90;;;;;;4981293;28;20117;-72
2022/11/17 04:04:18;;;;;;;50.65;37.00;;;7.10;99.90;;;;;;5015101;28;20524;-72
2022/11/17 04:06:43;;;;;;;42.90;33.90;;;7.10;99.90;;;;;;5014981;28;20077;-72
2022/11/17 04:09:09;;;;;;;41.30;33.03;;;7.10;99.90;;;;;;5014417;28;20089;-73
2022/11/17 04:17:06;;;;;;;35.13;29.05;;;7.10;99.90;;;;;;5013767;28;20077;-72
2022/11/17 04:19:31;;;;;;;39.58;32.15;;;7.50;99.90;;;;;;5013811;28;20042;-72
2022/11/17 04:21:57;;;;;;;38.35;30.92;;;7.00;99.90;;;;;;5014646;28;20038;-72
2022/11/17 04:24:23;;;;;;;36.92;30.67;;;7.00;99.90;;;;;;5034931;28;20342;-72
2022/11/17 04:29:33;;;;;;;34.33;30.15;;;7.00;99.90;;;;;;5016686;28;20050;-73
2022/11/17 04:31:59;;;;;;;37.63;31.48;;;7.00;99.90;;;;;;5034586;28;20112;-72
2022/11/17 04:34:25;;;;;;;35.40;29.10;;;7.00;99.90;;;;;;5034784;28;20116;-72
2022/11/17 04:36:50;;;;;;;40.55;31.52;;;7.00;99.90;;;;;;5034219;28;20547;-72
2022/11/17 04:39:16;;;;;;;36.75;29.27;;;7.00;99.90;;;;;;5034260;28;20315;-72
2022/11/17 04:42:00;;;;;;;29.13;25.38;;;7.00;99.90;;;;;;5014397;28;20074;-72
2022/11/17 04:44:28;;;;;;;37.25;30.30;;;7.00;99.90;;;;;;5014619;28;20042;-72
2022/11/17 04:46:54;;;;;;;35.00;28.95;;;6.90;99.90;;;;;;5033899;28;20042;-71
2022/11/17 04:49:22;;;;;;;39.85;29.25;;;6.90;99.90;;;;;;5019206;28;20128;-72
2022/11/17 04:51:48;;;;;;;36.95;28.70;;;6.80;99.90;;;;;;5037583;28;20453;-73
2022/11/17 04:54:16;;;;;;;36.88;25.05;;;6.80;99.90;;;;;;5038204;28;20373;-72
2022/11/17 04:56:42;;;;;;;36.92;26.80;;;6.90;99.90;;;;;;5038001;28;20465;-71
2022/11/17 04:59:13;;;;;;;33.10;27.25;;;6.80;99.90;;;;;;5037646;28;20054;-72
2022/11/17 05:01:39;;;;;;;36.10;27.88;;;6.80;99.90;;;;;;4920438;29;20381;-71
2022/11/17 05:04:08;;;;;;;34.45;26.48;;;6.80;99.90;;;;;;4903577;29;20056;-72
2022/11/17 05:06:39;;;;;;;36.08;27.10;;;6.80;99.90;;;;;;4919175;29;20056;-72
2022/11/17 05:09:10;;;;;;;30.27;25.45;;;6.70;99.90;;;;;;4918925;29;20084;-71
2022/11/17 05:14:21;;;;;;;37.60;26.55;;;6.70;99.90;;;;;;4917763;29;20040;-72
2022/11/17 05:17:04;;;;;;;26.92;23.58;;;6.70;99.90;;;;;;4919111;29;20048;-72
2022/11/17 05:19:41;;;;;;;34.72;27.35;;;6.70;99.90;;;;;;4919105;29;20052;-71
2022/11/17 05:24:52;;;;;;;24.65;21.55;;;6.60;99.90;;;;;;4918907;29;20059;-70
2022/11/17 05:27:18;;;;;;;32.58;26.08;;;6.60;99.90;;;;;;4918825;29;20409;-72
2022/11/17 05:29:43;;;;;;;28.80;25.38;;;6.60;99.90;;;;;;4918814;29;20472;-71
2022/11/17 05:32:09;;;;;;;35.85;27.60;;;6.60;99.90;;;;;;4942422;28;20058;-71
2022/11/17 05:34:34;;;;;;;25.75;22.05;;;6.60;99.90;;;;;;4997955;28;20359;-71
2022/11/17 05:37:00;;;;;;;27.20;24.02;;;6.60;99.90;;;;;;4998097;28;20088;-72
2022/11/17 05:39:26;;;;;;;34.20;25.45;;;6.50;99.90;;;;;;4997814;28;20137;-72
2022/11/17 05:41:51;;;;;;;31.10;25.65;;;6.50;99.90;;;;;;4997632;28;20046;-72
2022/11/17 05:44:17;;;;;;;27.10;23.15;;;6.50;99.90;;;;;;4997357;28;20065;-71
2022/11/17 05:46:43;;;;;;;29.35;24.65;;;6.50;99.90;;;;;;5016888;28;20115;-72
2022/11/17 05:49:08;;;;;;;23.42;19.70;;;6.50;99.90;;;;;;5017071;28;20046;-72
2022/11/17 05:51:35;;;;;;;26.40;22.55;;;6.50;99.90;;;;;;5016909;28;20049;-72
2022/11/17 05:54:00;;;;;;;25.48;21.50;;;6.50;99.90;;;;;;5016965;28;20063;-71
2022/11/17 05:56:34;;;;;;;31.63;24.55;;;6.40;99.90;;;;;;5017077;28;20358;-71
2022/11/17 05:59:11;;;;;;;21.90;19.60;;;6.50;99.90;;;;;;5017083;28;20033;-70
2022/11/17 06:01:58;;;;;;;32.17;24.05;;;6.50;99.90;;;;;;5016316;28;20050;-73
2022/11/17 06:04:23;;;;;;;25.02;22.20;;;6.40;99.90;;;;;;4999583;28;20050;-72
2022/11/17 06:06:49;;;;;;;25.27;20.50;;;6.40;99.90;;;;;;4999977;28;20046;-74
2022/11/17 06:09:15;;;;;;;24.42;20.33;;;6.50;99.90;;;;;;5029674;28;20064;-71
2022/11/17 06:11:41;;;;;;;27.73;22.10;;;6.50;99.90;;;;;;5036651;28;20041;-72
2022/11/17 06:14:06;;;;;;;20.63;17.98;;;6.50;99.90;;;;;;5036413;28;20048;-72
2022/11/17 06:16:35;;;;;;;21.08;18.50;;;6.50;99.90;;;;;;5021528;28;20059;-72
2022/11/17 06:19:06;;;;;;;20.67;18.48;;;6.50;99.90;;;;;;5016492;28;20096;-71
2022/11/17 06:21:33;;;;;;;23.85;18.83;;;6.70;99.90;;;;;;5016998;28;20450;-72
2022/11/17 06:24:01;;;;;;;23.90;19.75;;;6.50;99.90;;;;;;5016568;28;20097;-72
2022/11/17 06:26:27;;;;;;;24.30;20.60;;;6.50;99.90;;;;;;5016373;28;20137;-71
2022/11/17 06:28:53;;;;;;;23.63;19.25;;;6.50;99.90;;;;;;5016148;28;20050;-72
2022/11/17 06:31:19;;;;;;;21.92;19.58;;;6.50;99.90;;;;;;5016104;28;20038;-71
2022/11/17 06:33:46;;;;;;;21.67;18.50;;;6.40;99.90;;;;;;5016020;28;20056;-71
2022/11/17 06:36:12;;;;;;;21.48;18.40;;;6.50;99.90;;;;;;5016352;28;20068;-72
2022/11/17 06:38:38;;;;;;;18.88;16.23;;;6.50;99.90;;;;;;5016237;28;20037;-73
2022/11/17 06:41:04;;;;;;;25.83;18.85;;;6.50;99.90;;;;;;5016377;28;20061;-72
2022/11/17 06:43:33;;;;;;;20.73;17.70;;;6.40;99.90;;;;;;5016201;28;20034;-71
2022/11/17 06:46:05;;;;;;;23.45;19.08;;;6.80;99.90;;;;;;5016050;28;20137;-73
2022/11/17 06:48:34;;;;;;;18.45;16.45;;;6.40;99.90;;;;;;5015618;28;20100;-72
2022/11/17 06:51:03;;;;;;;16.83;15.13;;;6.50;99.90;;;;;;5015606;28;20073;-72
2022/11/17 06:53:30;;;;;;;20.27;17.95;;;6.50;99.90;;;;;;5016102;28;20046;-71
2022/11/17 06:56:00;;;;;;;21.80;18.80;;;6.50;99.90;;;;;;5015991;28;20469;-72
2022/11/17 06:58:26;;;;;;;21.35;18.60;;;6.60;99.90;;;;;;5015755;28;20053;-72
2022/11/17 07:00:51;;;;;;;19.10;17.10;;;6.50;99.90;;;;;;5018247;28;20192;-73
2022/11/17 07:03:17;;;;;;;21.30;19.00;;;6.40;99.90;;;;;;5035328;28;20490;-72
2022/11/17 07:05:43;;;;;;;21.15;18.48;;;6.50;99.90;;;;;;5015990;28;20053;-72
2022/11/17 07:08:09;;;;;;;24.88;19.48;;;6.50;99.90;;;;;;5014773;28;20046;-73
2022/11/17 07:10:35;;;;;;;20.60;18.48;;;6.50;99.90;;;;;;5018260;28;20373;-72
2022/11/17 07:13:01;;;;;;;19.90;17.48;;;6.40;99.90;;;;;;5034238;28;20049;-72
2022/11/17 07:15:26;;;;;;;17.75;15.98;;;6.60;99.90;;;;;;5015395;28;20129;-72
2022/11/17 07:17:52;;;;;;;18.90;16.90;;;6.40;99.90;;;;;;5015746;28;20196;-72
2022/11/17 07:20:18;;;;;;;20.23;17.63;;;6.40;99.90;;;;;;5014884;28;20054;-73
2022/11/17 07:22:43;;;;;;;15.98;14.38;;;6.50;99.90;;;;;;5015621;28;20125;-72
2022/11/17 07:25:10;;;;;;;17.67;14.18;;;6.50;99.90;;;;;;5001475;28;20052;-71
2022/11/17 07:27:36;;;;;;;17.50;14.52;;;6.50;99.90;;;;;;5035094;28;20063;-73
2022/11/17 07:30:03;;;;;;;19.83;15.85;;;6.70;99.90;;;;;;5016281;28;20042;-72
2022/11/17 07:32:30;;;;;;;18.13;15.77;;;6.50;99.90;;;;;;5015189;28;20049;-72
2022/11/17 07:35:00;;;;;;;18.45;16.45;;;6.40;99.90;;;;;;4997937;28;20038;-72
2022/11/17 07:37:27;;;;;;;18.42;16.30;;;6.50;99.90;;;;;;4997738;28;20088;-71
2022/11/17 07:39:52;;;;;;;22.73;18.23;;;6.50;99.90;;;;;;5015122;28;20042;-71
2022/11/17 07:42:18;;;;;;;17.08;15.25;;;6.40;99.90;;;;;;5015323;28;20514;-72
2022/11/17 07:44:43;;;;;;;20.42;17.08;;;6.40;99.90;;;;;;5015035;28;20077;-72
2022/11/17 07:47:09;;;;;;;20.73;17.38;;;6.40;99.90;;;;;;5015900;28;20052;-72
2022/11/17 07:49:34;;;;;;;19.20;16.42;;;6.40;99.90;;;;;;5015255;28;20404;-71
2022/11/17 07:52:00;;;;;;;17.30;14.30;;;6.40;99.90;;;;;;4997639;28;20072;-71
2022/11/17 07:54:26;;;;;;;18.92;15.98;;;6.40;99.90;;;;;;5015153;28;20042;-72
2022/11/17 07:56:52;;;;;;;17.95;16.05;;;6.40;99.90;;;;;;5014925;28;20042;-72
2022/11/17 07:59:17;;;;;;;17.77;15.88;;;6.40;99.90;;;;;;4999806;28;20119;-71
2022/11/17 08:01:43;;;;;;;17.33;14.90;;;6.40;99.90;;;;;;5035061;28;20053;-72
2022/11/17 08:04:09;;;;;;;17.13;14.90;;;6.40;99.90;;;;;;5034691;28;20457;-72
2022/11/17 08:06:36;;;;;;;16.48;14.45;;;6.40;99.90;;;;;;5034468;28;20362;-71
2022/11/17 08:09:02;;;;;;;17.98;15.43;;;6.40;99.90;;;;;;5034605;28;20465;-72
2022/11/17 08:11:27;;;;;;;18.77;15.85;;;6.40;99.90;;;;;;5034623;28;20056;-71
2022/11/17 08:13:53;;;;;;;16.52;13.25;;;6.40;99.90;;;;;;5034146;28;20037;-71
2022/11/17 08:16:19;;;;;;;14.77;12.77;;;6.70;99.90;;;;;;5035215;28;20033;-73
2022/11/17 08:18:45;;;;;;;18.58;13.88;;;6.40;99.90;;;;;;5017282;28;20049;-72
2022/11/17 08:21:13;;;;;;;17.80;13.98;;;6.40;99.90;;;;;;5035290;28;20045;-72
2022/11/17 08:23:40;;;;;;;16.08;14.38;;;6.50;99.90;;;;;;5035569;28;20042;-71
2022/11/17 08:26:07;;;;;;;17.30;15.13;;;6.40;99.90;;;;;;5038135;28;20056;-71
2022/11/17 08:28:33;;;;;;;14.98;13.45;;;6.50;99.90;;;;;;5017094;28;20120;-72
2022/11/17 08:31:03;;;;;;;16.00;14.35;;;6.50;99.90;;;;;;5035380;28;20540;-72
2022/11/17 08:33:29;;;;;;;16.00;14.38;;;7.00;99.90;;;;;;5038472;28;20201;-71
2022/11/17 08:35:59;;;;;;;21.73;17.92;;;6.50;99.90;;;;;;5038376;28;20085;-72
2022/11/17 08:38:28;;;;;;;16.75;14.95;;;6.50;99.90;;;;;;5037914;28;20042;-73
2022/11/17 08:41:11;;;;;;;17.08;15.38;;;6.60;99.90;;;;;;5038000;28;20077;-72
2022/11/17 08:43:37;;;;;;;18.67;16.13;;;6.60;99.90;;;;;;5020774;28;20046;-71
2022/11/17 08:46:03;;;;;;;16.30;14.65;;;6.50;99.90;;;;;;5018306;28;20056;-71
2022/11/17 08:48:30;;;;;;;18.63;16.70;;;6.50;99.90;;;;;;5017862;28;20056;-72
2022/11/17 08:50:56;;;;;;;16.67;14.98;;;6.60;99.90;;;;;;5011846;28;20049;-71
2022/11/17 08:53:22;;;;;;;19.85;17.70;;;6.60;99.90;;;;;;5017900;28;20332;-71
2022/11/17 08:55:49;;;;;;;18.45;16.08;;;6.60;99.90;;;;;;5018350;28;20042;-72
2022/11/17 08:58:14;;;;;;;18.98;17.02;;;6.60;99.90;;;;;;5018004;28;20045;-71
2022/11/17 09:00:40;;;;;;;19.98;17.90;;;6.60;99.90;;;;;;5018306;28;20053;-71
2022/11/17 09:03:09;;;;;;;22.98;19.13;;;6.60;99.90;;;;;;5018052;28;20431;-71
2022/11/17 09:05:39;;;;;;;20.52;17.95;;;6.60;99.90;;;;;;5034468;28;20034;-71
2022/11/17 09:08:06;;;;;;;22.95;18.23;;;6.60;99.90;;;;;;5018067;28;20073;-71
2022/11/17 09:10:31;;;;;;;17.63;15.43;;;6.60;99.90;;;;;;5018366;28;20058;-72
2022/11/17 09:12:57;;;;;;;18.70;16.70;;;6.60;99.90;;;;;;5000789;28;20072;-71
2022/11/17 09:15:23;;;;;;;20.85;18.55;;;6.60;99.90;;;;;;5000438;28;20054;-71
2022/11/17 09:17:49;;;;;;;21.15;17.38;;;6.60;99.90;;;;;;5017272;28;20061;-71
2022/11/17 09:20:17;;;;;;;22.00;18.90;;;6.60;99.90;;;;;;5016934;28;20065;-72
2022/11/17 09:22:43;;;;;;;17.98;16.08;;;6.60;99.90;;;;;;5016978;28;20042;-72
2022/11/17 09:25:09;;;;;;;20.77;17.45;;;6.90;99.90;;;;;;5017618;28;20037;-71
2022/11/17 09:27:34;;;;;;;19.67;17.65;;;6.60;99.90;;;;;;5017440;28;20034;-72
2022/11/17 09:30:00;;;;;;;19.63;17.63;;;6.60;99.90;;;;;;5017581;28;20037;-72
2022/11/17 09:32:26;;;;;;;15.20;13.60;;;6.80;99.90;;;;;;5017684;28;20050;-72
2022/11/17 09:34:52;;;;;;;17.98;15.68;;;6.60;99.90;;;;;;5016397;28;20492;-72
2022/11/17 09:37:17;;;;;;;17.90;15.43;;;6.60;99.90;;;;;;5017202;28;20068;-72
2022/11/17 09:39:43;;;;;;;17.63;15.82;;;6.60;99.90;;;;;;5017727;28;20057;-72
2022/11/17 09:42:14;;;;;;;16.23;14.57;;;6.60;99.90;;;;;;5037668;28;20045;-73
2022/11/17 09:44:53;;;;;;;16.20;14.52;;;6.60;99.90;;;;;;5037128;28;20077;-72
2022/11/17 09:47:39;;;;;;;18.98;16.95;;;6.60;99.90;;;;;;5019357;28;20046;-72
2022/11/17 09:50:39;;;;;;;18.05;16.08;;;6.60;99.90;;;;;;5035624;28;20403;-72
2022/11/17 09:53:21;;;;;;;17.10;15.32;;;6.60;99.90;;;;;;5017082;28;20339;-72
2022/11/17 09:55:51;;;;;;;14.80;13.25;;;6.60;99.90;;;;;;5017257;28;20061;-71
2022/11/17 09:58:28;;;;;;;17.60;15.32;;;6.60;99.90;;;;;;5017203;28;20345;-72
2022/11/17 10:00:55;;;;;;;17.10;15.23;;;6.60;99.90;;;;;;5017518;28;20073;-73
2022/11/17 10:03:31;;;;;;;16.00;14.40;;;6.60;99.90;;;;;;5017036;28;20050;-73
2022/11/17 10:05:59;;;;;;;19.05;16.40;;;6.80;99.90;;;;;;5016729;28;20073;-72
2022/11/17 10:08:37;;;;;;;16.23;14.20;;;6.60;99.90;;;;;;5016159;28;20068;-71
2022/11/17 10:11:30;;;;;;;16.25;14.60;;;6.60;99.90;;;;;;4999557;28;20064;-72
2022/11/17 10:13:49;;;;;;;20.05;17.00;;;6.60;99.90;;;;;;5016697;28;20046;-72
2022/11/17 10:16:15;;;;;;;19.13;17.13;;;6.60;99.90;;;;;;5016423;28;20057;-73
2022/11/17 10:18:41;;;;;;;18.02;16.13;;;6.60;99.90;;;;;;5016718;28;20050;-73
2022/11/17 10:21:08;;;;;;;19.90;17.80;;;6.60;99.90;;;;;;5006163;28;20145;-72
2022/11/17 10:23:39;;;;;;;19.30;16.42;;;6.60;99.90;;;;;;5032715;28;20104;-71
2022/11/17 10:26:11;;;;;;;16.88;15.10;;;6.60;99.90;;;;;;5015637;28;20116;-71
2022/11/17 10:28:36;;;;;;;18.02;15.13;;;6.70;99.90;;;;;;5016116;28;20046;-72
2022/11/17 10:31:18;;;;;;;17.55;15.75;;;6.70;99.90;;;;;;5036211;28;20431;-73
2022/11/17 10:33:46;;;;;;;26.27;19.77;;;6.70;99.90;;;;;;5035981;28;20124;-71
2022/11/17 10:36:22;;;;;;;17.77;15.85;;;6.70;99.90;;;;;;5036201;28;20037;-72
2022/11/17 10:38:51;;;;;;;19.15;17.15;;;6.70;99.90;;;;;;5029197;28;20064;-71
2022/11/17 10:41:27;;;;;;;19.80;16.30;;;6.70;99.90;;;;;;5016440;28;20469;-73
2022/11/17 10:43:55;;;;;;;19.15;16.85;;;6.70;99.90;;;;;;5015869;28;20489;-72
2022/11/17 10:46:22;;;;;;;16.08;14.43;;;6.70;99.90;;;;;;5015132;28;20450;-71
2022/11/17 10:49:05;;;;;;;24.67;18.88;;;6.70;99.90;;;;;;5016237;28;20038;-72
2022/11/17 10:51:32;;;;;;;19.65;17.25;;;6.70;99.90;;;;;;5006282;28;20060;-72
2022/11/17 10:54:19;;;;;;;19.48;15.95;;;6.70;99.90;;;;;;4998565;28;20054;-72
2022/11/17 10:56:57;;;;;;;16.60;14.27;;;6.70;99.90;;;;;;5016825;28;20395;-71
2022/11/17 10:59:50;;;;;;;15.45;13.85;;;6.70;99.90;;;;;;5016485;28;20316;-73
2022/11/17 11:02:35;;;;;;;18.52;15.32;;;6.70;99.90;;;;;;5005375;28;20127;-71
2022/11/17 11:05:13;;;;;;;16.40;13.98;;;6.70;99.90;;;;;;5016046;28;20418;-72
2022/11/17 11:07:39;;;;;;;17.90;15.40;;;6.80;99.90;;;;;;5015846;28;20038;-72
2022/11/17 11:10:22;;;;;;;17.38;15.43;;;6.80;99.90;;;;;;5015558;28;20045;-72
2022/11/17 11:13:23;;;;;;;20.30;17.08;;;6.80;99.90;;;;;;5015681;28;20450;-71
2022/11/17 11:15:49;;;;;;;18.23;15.32;;;6.80;99.90;;;;;;5015504;28;20049;-73
2022/11/17 11:18:17;;;;;;;16.30;14.25;;;6.80;99.90;;;;;;5015411;28;20048;-71
2022/11/17 11:20:49;;;;;;;16.50;14.38;;;6.80;99.90;;;;;;5015448;28;20060;-71
2022/11/17 11:23:51;;;;;;;17.23;14.18;;;6.80;99.90;;;;;;5015503;28;20453;-72
2022/11/17 11:26:50;;;;;;;15.73;13.50;;;6.90;99.90;;;;;;5015576;28;20057;-72
2022/11/17 11:29:36;;;;;;;16.05;12.93;;;6.80;99.90;;;;;;5015548;28;20042;-72
2022/11/17 11:32:04;;;;;;;14.95;13.35;;;6.90;99.90;;;;;;5014904;28;20054;-71
2022/11/17 11:34:35;;;;;;;17.17;14.20;;;6.90;99.90;;;;;;5015717;28;20133;-73
2022/11/17 11:37:13;;;;;;;15.45;13.35;;;6.90;99.90;;;;;;5015502;28;20042;-72
2022/11/17 11:39:59;;;;;;;17.10;15.30;;;6.90;99.90;;;;;;5015934;28;20053;-72
2022/11/17 11:42:43;;;;;;;22.88;18.08;;;6.90;99.90;;;;;;5015123;28;20165;-72
2022/11/17 11:45:14;;;;;;;17.55;14.00;;;6.90;99.90;;;;;;5015387;28;20034;-72
2022/11/17 11:47:45;;;;;;;21.10;16.40;;;6.90;99.90;;;;;;5014713;28;20053;-72
2022/11/17 11:50:26;;;;;;;20.90;16.52;;;6.90;99.90;;;;;;5015461;28;20082;-72
2022/11/17 11:53:24;;;;;;;21.02;17.02;;;7.40;99.90;;;;;;5015256;28;20112;-72
2022/11/17 11:56:08;;;;;;;23.67;18.02;;;6.90;99.90;;;;;;4971446;28;20055;-72
2022/11/17 11:58:36;;;;;;;17.92;15.63;;;7.00;99.90;;;;;;4998095;28;20053;-73
2022/11/17 12:01:07;;;;;;;17.25;14.82;;;7.00;99.90;;;;;;4999794;28;20133;-72
2022/11/17 12:03:42;;;;;;;18.02;16.00;;;6.90;99.90;;;;;;4999307;28;20050;-73
2022/11/17 12:06:40;;;;;;;22.02;17.83;;;6.90;99.90;;;;;;4999172;28;20129;-72
2022/11/17 12:09:12;;;;;;;16.77;14.65;;;6.90;99.90;;;;;;5016015;28;20111;-72
2022/11/17 12:14:36;;;;;;;16.20;14.45;;;7.00;99.90;;;;;;5021692;28;20049;-72
2022/11/17 12:17:22;;;;;;;17.52;14.35;;;7.00;99.90;;;;;;5038480;28;20045;-72
2022/11/17 12:20:01;;;;;;;17.83;14.15;;;7.00;99.90;;;;;;5038918;28;20394;-73
2022/11/17 12:22:29;;;;;;;16.90;13.82;;;6.90;99.90;;;;;;5038489;28;20041;-72
2022/11/17 12:25:02;;;;;;;22.88;16.05;;;7.00;99.90;;;;;;5038314;28;20480;-73
2022/11/17 12:27:51;;;;;;;22.55;14.85;;;7.00;99.90;;;;;;5021488;28;20049;-73
2022/11/17 12:30:32;;;;;;;18.98;14.68;;;6.90;99.90;;;;;;5038248;28;20080;-72
2022/11/17 12:33:07;;;;;;;17.13;14.13;;;6.90;99.90;;;;;;5021287;28;20056;-73
2022/11/17 12:35:35;;;;;;;17.20;14.10;;;6.90;99.90;;;;;;5020827;28;20037;-73
2022/11/17 12:38:16;;;;;;;16.85;13.55;;;6.90;99.90;;;;;;5034599;28;20045;-72
2022/11/17 12:40:46;;;;;;;23.00;15.60;;;7.00;99.90;;;;;;5018578;28;20046;-73
2022/11/17 12:43:15;;;;;;;17.58;14.18;;;7.00;99.90;;;;;;5018425;28;20089;-73
2022/11/17 12:46:20;;;;;;;16.13;13.52;;;7.00;99.90;;;;;;5018533;28;20109;-73
2022/11/17 12:49:05;;;;;;;20.35;15.02;;;7.00;99.90;;;;;;5018068;28;20046;-73
2022/11/17 12:51:43;;;;;;;18.92;14.88;;;7.00;99.90;;;;;;5018116;28;20044;-73
2022/11/17 12:54:24;;;;;;;19.05;14.68;;;7.10;99.90;;;;;;5017894;28;20112;-73
2022/11/17 12:57:14;;;;;;;17.38;13.52;;;7.10;99.90;;;;;;5017907;28;20046;-73
2022/11/17 13:00:06;;;;;;;15.50;13.30;;;7.10;99.90;;;;;;5020455;28;20064;-71
2022/11/17 13:02:52;;;;;;;17.25;13.70;;;7.10;99.90;;;;;;5020460;28;20049;-73
2022/11/17 13:05:30;;;;;;;18.95;13.27;;;7.20;99.90;;;;;;5036673;28;20069;-73
2022/11/17 13:08:10;;;;;;;15.52;12.77;;;7.20;99.90;;;;;;5030236;28;20038;-72
2022/11/17 13:10:36;;;;;;;19.58;14.32;;;7.20;99.90;;;;;;5017424;28;20111;-73
2022/11/17 13:13:31;;;;;;;15.13;12.38;;;7.30;99.90;;;;;;5020745;28;20049;-72
2022/11/17 13:15:59;;;;;;;18.13;13.20;;;7.20;99.90;;;;;;5008695;28;20057;-72
2022/11/17 13:18:37;;;;;;;18.55;13.70;;;7.20;99.90;;;;;;5037998;28;20353;-73
2022/11/17 13:21:13;;;;;;;17.45;14.07;;;7.30;99.90;;;;;;5020206;28;20053;-72
2022/11/17 13:23:43;;;;;;;17.45;13.90;;;7.30;99.90;;;;;;5020801;28;20037;-73
2022/11/17 13:26:15;;;;;;;23.77;16.58;;;7.30;99.90;;;;;;4998900;28;20049;-73